Terminal Aerodrome Forecast
Issued by NWS Quad Cities IA IL

Home | Current Version | Previous Version | Text Only | Print | Product List | Glossary On
Versions: 1 2 3 4 5 6 7 8 9 10 11 12 13 14
000
FTUS43 KDVN 240520
TAFDBQ
TAF
KDBQ 240520Z 2406/2506 14006KT P6SM BKN080
     FM241000 13007KT P6SM VCSH BKN050
      TEMPO 2414/2418 4SM -SHRA BKN025
     FM242200 14012G20KT P6SM VCTS BKN030CB
      TEMPO 2423/2502 3SM TSRA BR OVC020CB
     FM250200 16012KT 6SM BR OVC015=

USA.gov is the U.S. government's official web portal to all federal, state and local government web resources and services.